Time;durP1;ratioP1;P1;durP2;ratioP2;P2;SDS_P1;SDS_P2;PMS_P1;PMS_P2;Temp;Humidity;BMP_temperature;BMP_pressure;BME280_temperature;BME280_humidity;BME280_pressure;Samples;Min_cycle;Max_cycle;Signal;HPM_P1;HPM_P2
2024/04/24 00:01:31;;;;;;;6.07;4.50;;;;;;;9.11;39.96;97019.06;5432702;26;20231;-69
2024/04/24 00:03:56;;;;;;;7.13;4.63;;;;;;;9.09;39.64;97016.59;5447875;26;20313;-67
2024/04/24 00:06:22;;;;;;;5.83;4.20;;;;;;;9.14;39.61;97006.50;5445302;26;20243;-69
2024/04/24 00:08:47;;;;;;;5.60;3.90;;;;;;;9.11;40.03;97012.06;5446464;26;20243;-68
2024/04/24 00:11:18;;;;;;;8.50;4.83;;;;;;;9.03;41.52;97010.16;5440314;26;20235;-68
2024/04/24 00:13:43;;;;;;;5.40;4.90;;;;;;;8.83;42.30;97001.63;5445998;26;20239;-68
2024/04/24 00:16:09;;;;;;;10.33;4.87;;;;;;;8.75;42.75;97004.97;5446866;26;20604;-68
2024/04/24 00:18:34;;;;;;;11.07;5.60;;;;;;;8.73;42.49;97003.47;5445715;26;20286;-67
2024/04/24 00:20:59;;;;;;;8.47;4.60;;;;;;;8.70;42.76;96998.53;5446263;26;20246;-69
2024/04/24 00:23:25;;;;;;;7.03;5.03;;;;;;;8.75;43.19;96993.69;5446392;26;20227;-69
2024/04/24 00:25:50;;;;;;;5.80;4.90;;;;;;;8.67;43.52;97002.25;5446788;26;20839;-69
2024/04/24 00:28:16;;;;;;;6.13;5.40;;;;;;;8.65;43.93;96993.75;5445384;26;20247;-69
2024/04/24 00:30:41;;;;;;;6.80;4.90;;;;;;;8.67;43.92;96999.66;5446146;26;20235;-68
2024/04/24 00:33:09;;;;;;;6.30;5.23;;;;;;;8.64;44.08;96996.47;5446672;26;20281;-69
2024/04/24 00:35:34;;;;;;;5.93;5.07;;;;;;;8.53;44.35;96995.72;5446144;26;20247;-69
2024/04/24 00:38:00;;;;;;;9.60;5.13;;;;;;;8.41;44.08;96992.44;5446108;26;20993;-69
2024/04/24 00:40:25;;;;;;;11.23;5.60;;;;;;;8.35;44.65;96987.78;5446786;26;20282;-67
2024/04/24 00:42:51;;;;;;;7.30;5.30;;;;;;;8.33;44.20;96981.88;5449894;26;20299;-68
2024/04/24 00:45:16;;;;;;;8.30;5.73;;;;;;;8.22;43.71;96982.06;5450392;26;20239;-69
2024/04/24 00:47:42;;;;;;;7.73;4.63;;;;;;;8.24;42.89;96985.34;5448948;26;20243;-68
2024/04/24 00:50:12;;;;;;;5.03;4.57;;;;;;;8.29;42.85;96977.94;5446453;26;20303;-69
2024/04/24 00:52:38;;;;;;;5.47;4.50;;;;;;;8.27;42.36;96979.84;5447308;26;20576;-68
2024/04/24 00:55:04;;;;;;;5.10;4.60;;;;;;;8.32;42.47;96979.41;5449089;26;20556;-69
2024/04/24 00:57:30;;;;;;;5.10;4.20;;;;;;;8.19;42.24;96983.16;5450252;26;21339;-69
2024/04/24 00:59:55;;;;;;;5.30;4.67;;;;;;;8.19;41.59;96972.72;5452520;26;20304;-69
2024/04/24 01:02:20;;;;;;;4.60;4.13;;;;;;;8.23;42.13;96974.09;5451897;26;20243;-69
2024/04/24 01:04:46;;;;;;;7.80;4.57;;;;;;;8.21;41.54;96975.19;5451248;26;20231;-69
2024/04/24 01:07:12;;;;;;;5.63;4.47;;;;;;;8.29;41.87;96976.13;5450298;26;20303;-69
2024/04/24 01:09:37;;;;;;;6.03;4.90;;;;;;;8.40;41.34;96969.06;5450877;26;20892;-68
2024/04/24 01:12:03;;;;;;;4.57;4.10;;;;;;;8.49;41.25;96962.19;5451103;26;20236;-70
2024/04/24 01:14:28;;;;;;;5.00;4.50;;;;;;;8.49;41.94;96965.63;5448519;26;20299;-69
2024/04/24 01:16:54;;;;;;;5.80;4.00;;;;;;;8.57;41.30;96968.34;5449789;26;20240;-69
2024/04/24 01:19:37;;;;;;;4.90;3.93;;;;;;;8.54;41.52;96959.97;5448922;26;20235;-69
2024/04/24 01:22:02;;;;;;;11.83;4.63;;;;;;;8.52;41.23;96954.06;5453867;26;20455;-68
2024/04/24 01:24:32;;;;;;;4.80;4.23;;;;;;;8.58;41.30;96956.09;5448798;26;20583;-69
2024/04/24 01:26:58;;;;;;;5.63;4.53;;;;;;;8.59;41.71;96953.34;5449443;26;20278;-69
2024/04/24 01:29:24;;;;;;;6.00;4.60;;;;;;;8.56;41.70;96952.81;5450517;26;20460;-68
2024/04/24 01:31:49;;;;;;;5.10;4.60;;;;;;;8.54;42.65;96954.75;5409926;26;20243;-69
2024/04/24 01:34:15;;;;;;;4.40;3.90;;;;;;;8.64;42.24;96945.06;5450577;26;20295;-68
2024/04/24 01:36:40;;;;;;;6.83;4.67;;;;;;;8.64;41.64;96941.63;5449733;26;20305;-69
2024/04/24 01:39:06;;;;;;;5.20;4.70;;;;;;;8.64;nan;96945.06;5446191;26;20243;-69
2024/04/24 01:41:31;;;;;;;7.00;4.47;;;;;;;8.57;41.51;96942.22;5448826;26;20265;-68
2024/04/24 01:43:57;;;;;;;6.27;4.67;;;;;;;8.63;40.71;96946.03;5449123;26;20274;-68
2024/04/24 01:46:22;;;;;;;6.63;4.43;;;;;;;8.60;41.48;96943.72;5449787;26;20644;-69
2024/04/24 01:48:48;;;;;;;6.10;4.90;;;;;;;8.50;42.12;96942.94;5447632;26;20274;-70
2024/04/24 01:51:13;;;;;;;5.50;5.00;;;;;;;8.62;42.73;96941.78;5448154;26;20286;-68
2024/04/24 01:53:38;;;;;;;5.30;4.57;;;;;;;8.65;42.05;96936.25;5448747;26;20236;-68
2024/04/24 01:56:04;;;;;;;6.00;4.93;;;;;;;8.68;42.45;96933.38;5448592;26;20334;-68
2024/04/24 01:58:29;;;;;;;7.40;5.07;;;;;;;8.58;42.65;96928.19;5447975;26;20274;-69
2024/04/24 02:00:55;;;;;;;9.87;4.70;;;;;;;8.63;43.02;96932.16;5446923;26;20257;-70
2024/04/24 02:03:20;;;;;;;5.20;4.80;;;;;;;8.71;43.69;96921.78;5417965;26;20236;-68
2024/04/24 02:05:46;;;;;;;8.77;5.30;;;;;;;8.74;43.60;96929.34;5447167;26;20239;-70
2024/04/24 02:08:11;;;;;;;5.77;4.67;;;;;;;8.80;41.97;96922.69;5448771;26;20784;-70
2024/04/24 02:10:36;;;;;;;4.93;4.43;;;;;;;8.80;42.33;96920.09;5447674;26;20231;-68
2024/04/24 02:13:02;;;;;;;6.67;5.13;;;;;;;8.76;43.14;96922.16;5445499;26;20243;-68
2024/04/24 02:15:27;;;;;;;6.60;4.40;;;;;;;8.81;42.99;96913.91;5438908;26;20243;-67
2024/04/24 02:17:53;;;;;;;5.60;5.00;;;;;;;8.79;44.02;96914.03;5446929;26;20662;-68
2024/04/24 02:20:18;;;;;;;5.93;4.97;;;;;;;8.88;44.17;96910.50;5446578;26;20314;-68
2024/04/24 02:22:44;;;;;;;6.40;4.77;;;;;;;8.85;44.67;96915.22;5446452;26;20336;-69
2024/04/24 02:27:53;;;;;;;5.40;4.60;;;;;;;8.82;45.51;96912.94;5446702;26;20364;-67
2024/04/24 02:30:19;;;;;;;7.90;5.00;;;;;;;8.89;45.37;96911.34;5446825;26;20476;-70
2024/04/24 02:32:45;;;;;;;6.10;4.63;;;;;;;8.86;45.87;96916.88;5444691;26;20347;-67
2024/04/24 02:35:11;;;;;;;5.50;5.00;;;;;;;8.81;44.99;96909.47;5445157;26;20678;-69
2024/04/24 02:37:36;;;;;;;6.50;4.77;;;;;;;8.69;44.86;96915.88;5446456;26;20524;-69
2024/04/24 02:40:02;;;;;;;6.40;5.23;;;;;;;8.74;44.87;96914.47;5444475;26;20286;-70
2024/04/24 02:42:27;;;;;;;9.53;5.50;;;;;;;8.82;44.18;96897.25;5431804;26;20236;-72
2024/04/24 02:44:53;;;;;;;6.93;5.20;;;;;;;8.84;43.92;96897.91;5446735;26;20236;-69
2024/04/24 02:47:18;;;;;;;5.63;5.07;;;;;;;8.86;44.63;96893.34;5446088;26;21038;-68
2024/04/24 02:49:44;;;;;;;6.47;5.43;;;;;;;8.78;44.59;96888.84;5445796;26;20289;-68
2024/04/24 02:52:09;;;;;;;7.67;4.90;;;;;;;8.88;43.52;96896.63;5447085;26;20235;-70
2024/04/24 02:54:35;;;;;;;6.13;5.20;;;;;;;8.88;43.25;96891.41;5446974;26;20235;-69
2024/04/24 02:57:00;;;;;;;7.37;5.20;;;;;;;8.93;43.48;96883.13;5448597;26;20239;-69
2024/04/24 02:59:26;;;;;;;9.60;5.10;;;;;;;8.85;43.23;96887.31;5449596;26;20231;-67
2024/04/24 03:01:51;;;;;;;6.33;4.90;;;;;;;8.95;43.91;96889.03;5446102;26;20280;-68
2024/04/24 03:04:16;;;;;;;9.07;5.97;;;;;;;8.94;43.33;96883.00;5446592;26;20235;-70
2024/04/24 03:06:43;;;;;;;5.93;5.13;;;;;;;8.94;43.82;96872.53;5445739;26;20239;-71
2024/04/24 03:09:09;;;;;;;9.30;5.70;;;;;;;8.90;43.00;96882.44;5445503;26;20240;-69
2024/04/24 03:11:34;;;;;;;7.57;6.00;;;;;;;8.95;42.64;96868.91;5443093;26;20465;-69
2024/04/24 03:14:00;;;;;;;10.87;5.87;;;;;;;8.95;43.07;96868.91;5445036;26;20445;-69
2024/04/24 03:16:29;;;;;;;8.30;5.40;;;;;;;8.96;42.87;96865.34;5444845;26;20240;-69
2024/04/24 03:18:55;;;;;;;5.93;5.37;;;;;;;8.97;42.73;96871.41;5444203;26;20285;-68
2024/04/24 03:21:23;;;;;;;6.23;5.10;;;;;;;8.77;43.08;96863.69;5446243;26;20899;-69
2024/04/24 03:23:49;;;;;;;5.73;5.20;;;;;;;8.86;43.95;96869.81;5446303;26;20239;-68
2024/04/24 03:26:14;;;;;;;12.10;5.87;;;;;;;8.87;43.74;96861.03;5445813;26;20860;-70
2024/04/24 03:28:40;;;;;;;6.67;5.90;;;;;;;8.73;43.80;96857.16;5429172;26;20993;-69
2024/04/24 03:31:05;;;;;;;7.60;6.00;;;;;;;8.65;44.61;96862.28;5444328;26;20287;-70
2024/04/24 03:33:30;;;;;;;7.17;6.03;;;;;;;8.74;44.59;96867.44;5417307;26;20276;-68
2024/04/24 03:35:56;;;;;;;8.50;6.03;;;;;;;8.72;44.27;96858.13;5437553;26;20371;-69
2024/04/24 03:38:21;;;;;;;8.13;6.13;;;;;;;8.66;45.05;96861.31;5426273;26;20376;-69
2024/04/24 03:40:47;;;;;;;8.27;6.20;;;;;;;8.68;45.09;96860.22;5439366;26;20336;-69
2024/04/24 03:43:12;;;;;;;6.67;6.00;;;;;;;8.66;44.96;96859.53;5426514;26;20751;-68
2024/04/24 03:45:38;;;;;;;6.63;5.60;;;;;;;8.67;44.89;96863.78;5427783;26;20240;-68
2024/04/24 03:48:04;;;;;;;9.40;5.80;;;;;;;8.60;45.71;96862.72;5440769;26;20823;-68
2024/04/24 03:50:29;;;;;;;8.30;6.27;;;;;;;8.56;45.74;96870.03;5441357;26;20282;-69
2024/04/24 03:52:55;;;;;;;8.50;5.57;;;;;;;8.58;45.62;96856.81;5431263;26;20470;-69
2024/04/24 03:55:20;;;;;;;6.37;5.47;;;;;;;8.47;45.82;96868.28;5442781;26;20294;-71
2024/04/24 03:57:46;;;;;;;10.73;5.57;;;;;;;8.57;45.61;96861.25;5423574;26;20288;-68
2024/04/24 04:00:11;;;;;;;9.73;7.00;;;;;;;8.55;45.38;96859.75;5443635;26;20378;-69
2024/04/24 04:02:37;;;;;;;7.47;5.83;;;;;;;8.51;45.57;96858.41;5435505;26;20236;-70
2024/04/24 04:05:02;;;;;;;7.30;6.30;;;;;;;8.53;45.45;96859.88;5446037;26;20370;-68
2024/04/24 04:07:28;;;;;;;8.13;6.77;;;;;;;8.53;45.74;96859.06;5438143;26;20243;-68
2024/04/24 04:09:53;;;;;;;11.13;7.10;;;;;;;8.53;45.21;96859.06;5439475;26;20841;-71
2024/04/24 04:12:19;;;;;;;8.20;6.53;;;;;;;8.52;45.37;96862.66;5446260;26;20647;-69
2024/04/24 04:14:44;;;;;;;7.40;6.10;;;;;;;8.33;46.01;96861.75;5433255;26;20239;-69
2024/04/24 04:17:10;;;;;;;8.60;6.73;;;;;;;8.33;46.38;96853.94;5440318;26;20283;-69
2024/04/24 04:19:35;;;;;;;9.37;7.07;;;;;;;8.44;46.47;96855.53;5436022;26;20940;-71
2024/04/24 04:22:00;;;;;;;10.27;6.60;;;;;;;8.46;46.07;96849.16;5442533;26;20340;-69
2024/04/24 04:24:26;;;;;;;6.77;6.10;;;;;;;8.40;46.13;96856.78;5437019;26;20274;-68
2024/04/24 04:26:51;;;;;;;8.47;6.83;;;;;;;8.41;46.34;96842.75;5436723;26;20298;-70
2024/04/24 04:29:17;;;;;;;11.30;7.37;;;;;;;8.47;45.89;96850.00;5448774;26;20235;-67
2024/04/24 04:31:42;;;;;;;13.00;7.33;;;;;;;8.38;45.63;96843.88;5444727;26;20278;-71
2024/04/24 04:34:08;;;;;;;11.57;8.33;;;;;;;8.42;45.64;96852.22;5431113;26;20769;-69
2024/04/24 04:36:33;;;;;;;11.10;7.83;;;;;;;8.46;45.33;96854.41;5434803;26;20232;-69
2024/04/24 04:38:59;;;;;;;11.83;8.00;;;;;;;8.43;45.43;96844.28;5437929;26;20243;-69
2024/04/24 04:41:24;;;;;;;13.23;9.57;;;;;;;8.42;45.67;96855.69;5443655;26;20243;-68
2024/04/24 04:43:50;;;;;;;19.00;13.40;;;;;;;8.41;45.88;96847.97;5416337;26;20248;-69
2024/04/24 04:46:15;;;;;;;19.70;12.63;;;;;;;8.39;46.25;96848.13;5447396;26;20232;-70
2024/04/24 04:48:41;;;;;;;16.33;10.53;;;;;;;8.37;46.55;96844.03;5447691;26;20235;-70
2024/04/24 04:51:07;;;;;;;12.90;9.17;;;;;;;8.33;46.67;96845.28;5448232;26;20270;-71
2024/04/24 04:53:32;;;;;;;11.67;8.30;;;;;;;8.27;46.41;96844.88;5449022;26;20632;-69
2024/04/24 04:55:58;;;;;;;15.83;8.30;;;;;;;8.26;46.99;96853.69;5446984;26;20235;-69
2024/04/24 04:58:24;;;;;;;10.67;7.23;;;;;;;8.22;46.81;96851.53;5447844;26;20580;-69
2024/04/24 05:00:49;;;;;;;8.30;6.73;;;;;;;8.17;46.86;96854.56;5446743;26;20642;-70
2024/04/24 05:03:15;;;;;;;13.93;8.30;;;;;;;8.07;47.27;96857.22;5445046;26;20563;-69
2024/04/24 05:05:40;;;;;;;9.47;7.77;;;;;;;8.07;47.54;96854.63;5448161;26;20294;-69
2024/04/24 05:08:06;;;;;;;14.20;7.93;;;;;;;8.11;46.96;96858.59;5446881;26;20295;-71
2024/04/24 05:10:31;;;;;;;9.70;7.60;;;;;;;8.12;47.21;96855.00;5443300;26;20339;-68
2024/04/24 05:12:57;;;;;;;15.43;7.80;;;;;;;7.96;47.75;96855.66;5444939;26;20231;-69
2024/04/24 05:15:22;;;;;;;9.23;6.80;;;;;;;7.87;47.64;96843.47;5447646;26;20250;-71
2024/04/24 05:17:47;;;;;;;9.83;7.20;;;;;;;7.99;47.40;96844.09;5446029;26;20231;-67
2024/04/24 05:20:13;;;;;;;10.70;6.93;;;;;;;8.13;46.75;96843.59;5447143;26;20270;-70
2024/04/24 05:22:50;;;;;;;10.57;7.57;;;;;;;8.23;46.38;96838.34;5458022;26;20381;-69
2024/04/24 05:25:21;;;;;;;13.67;8.67;;;;;;;8.16;47.50;96832.03;5433293;26;20372;-68
2024/04/24 05:30:41;;;;;;;15.13;8.90;;;;;;;8.43;46.94;96828.59;5436897;26;20496;-68
2024/04/24 05:33:07;;;;;;;12.50;8.10;;;;;;;8.53;46.95;96830.34;5444668;26;21771;-69
2024/04/24 05:35:32;;;;;;;9.67;8.13;;;;;;;8.50;46.86;96823.63;5446839;26;20243;-69
2024/04/24 05:37:57;;;;;;;10.10;8.70;;;;;;;8.61;47.20;96822.56;5465715;26;20256;-70
2024/04/24 05:40:23;;;;;;;9.73;8.17;;;;;;;8.67;46.33;96814.16;5447062;26;20227;-67
2024/04/24 05:42:48;;;;;;;9.60;7.53;;;;;;;8.80;45.98;96813.75;5446609;26;20908;-68
2024/04/24 05:45:14;;;;;;;10.90;6.77;;;;;;;8.93;45.73;96802.94;5445153;26;20247;-69
2024/04/24 05:47:39;;;;;;;11.60;7.00;;;;;;;9.01;45.79;96813.44;5445099;26;20299;-69
2024/04/24 05:50:05;;;;;;;8.90;6.53;;;;;;;9.09;44.97;96811.84;5446109;26;20331;-68
2024/04/24 05:52:30;;;;;;;10.10;7.00;;;;;;;9.21;44.29;96813.25;5446897;26;20728;-68
2024/04/24 05:54:56;;;;;;;11.73;6.70;;;;;;;9.31;44.08;96808.75;5434320;26;20265;-68
2024/04/24 05:57:23;;;;;;;6.50;5.67;;;;;;;9.46;42.92;96810.78;5445026;26;20350;-68
2024/04/24 05:59:49;;;;;;;6.87;5.93;;;;;;;9.53;41.37;96810.00;5445433;26;20775;-68
2024/04/24 06:02:15;;;;;;;6.33;5.50;;;;;;;9.67;40.91;96803.38;5444171;26;20529;-68
2024/04/24 06:04:52;;;;;;;5.80;5.20;;;;;;;9.73;40.51;96801.94;5440290;26;20472;-68
2024/04/24 06:07:27;;;;;;;9.23;5.90;;;;;;;9.92;40.45;96802.66;5435888;26;20281;-69
2024/04/24 06:09:53;;;;;;;6.70;5.93;;;;;;;10.06;39.98;96801.25;5425113;26;20442;-70
2024/04/24 06:12:19;;;;;;;8.73;5.70;;;;;;;10.21;39.46;96796.22;5443770;26;20790;-68
2024/04/24 06:14:44;;;;;;;6.30;5.70;;;;;;;10.26;39.54;96786.88;5444411;26;20240;-69
2024/04/24 06:17:11;;;;;;;7.60;5.50;;;;;;;10.42;39.69;96791.38;5443754;26;20457;-70
2024/04/24 06:19:37;;;;;;;10.10;6.30;;;;;;;10.51;39.12;96786.97;5434563;26;20232;-70
2024/04/24 06:22:02;;;;;;;9.27;6.20;;;;;;;10.53;39.44;96779.75;5446815;26;20457;-69
2024/04/24 06:24:28;;;;;;;8.57;6.60;;;;;;;10.81;39.15;96782.06;5438946;26;20985;-68
2024/04/24 06:26:54;;;;;;;7.87;7.07;;;;;;;10.98;38.80;96782.88;5431520;26;20299;-69
2024/04/24 06:29:19;;;;;;;9.43;7.20;;;;;;;11.26;38.64;96789.56;5445066;26;20235;-69
2024/04/24 06:31:45;;;;;;;9.43;6.50;;;;;;;11.47;37.51;96781.16;5428597;26;20741;-68
2024/04/24 06:34:10;;;;;;;10.90;7.30;;;;;;;11.52;37.37;96784.91;5444020;26;20278;-69
2024/04/24 06:36:36;;;;;;;11.20;8.00;;;;;;;11.29;37.78;96789.25;5476395;26;20325;-70
2024/04/24 06:39:03;;;;;;;9.30;7.67;;;;;;;11.26;37.86;96784.31;5442905;26;20258;-70
2024/04/24 06:41:28;;;;;;;10.37;6.97;;;;;;;11.30;37.87;96790.88;5435846;26;20227;-69
2024/04/24 06:43:54;;;;;;;11.80;8.33;;;;;;;11.22;37.89;96783.84;5423462;26;20522;-69
2024/04/24 06:46:19;;;;;;;9.40;8.40;;;;;;;11.22;37.92;96789.09;5440917;26;20277;-70
2024/04/24 06:48:45;;;;;;;11.37;8.80;;;;;;;10.85;37.74;96788.59;5438045;26;20243;-70
2024/04/24 06:51:10;;;;;;;10.10;8.13;;;;;;;10.89;38.13;96789.94;5445863;26;20347;-71
2024/04/24 06:53:36;;;;;;;9.03;7.43;;;;;;;10.96;38.70;96784.84;5446220;26;20265;-70
2024/04/24 06:56:03;;;;;;;10.10;8.40;;;;;;;11.03;38.41;96785.00;5413753;26;20281;-71
2024/04/24 06:58:31;;;;;;;11.03;8.20;;;;;;;10.90;38.43;96780.25;5445676;26;20326;-67
2024/04/24 07:00:57;;;;;;;12.37;8.90;;;;;;;10.74;38.84;96784.53;5443562;26;20464;-70
2024/04/24 07:03:26;;;;;;;15.20;9.60;;;;;;;10.87;38.55;96781.41;5446477;26;20505;-69
2024/04/24 07:05:55;;;;;;;13.90;9.27;;;;;;;10.95;38.50;96787.66;5446405;26;20243;-69
2024/04/24 07:08:20;;;;;;;11.70;8.30;;;;;;;10.98;38.85;96788.13;5431093;26;20512;-70
2024/04/24 07:10:46;;;;;;;11.20;8.93;;;;;;;11.04;38.75;96786.66;5447747;26;20996;-70
2024/04/24 07:13:12;;;;;;;13.03;9.30;;;;;;;11.01;38.10;96781.72;5447139;26;20235;-69
2024/04/24 07:15:38;;;;;;;11.80;9.43;;;;;;;10.96;37.69;96778.81;5444161;26;20445;-70
2024/04/24 07:18:03;;;;;;;12.20;10.20;;;;;;;10.90;37.28;96775.84;5444993;26;20417;-70
2024/04/24 07:20:29;;;;;;;11.93;9.70;;;;;;;10.88;37.91;96772.56;5446183;26;20728;-70
2024/04/24 07:22:54;;;;;;;15.30;9.47;;;;;;;10.91;38.23;96772.22;5445422;26;20588;-68
2024/04/24 07:25:21;;;;;;;17.60;9.67;;;;;;;10.96;38.18;96763.06;5445486;26;20295;-69
2024/04/24 07:27:47;;;;;;;11.97;10.10;;;;;;;10.82;38.58;96762.75;5445031;26;20244;-70
2024/04/24 07:30:12;;;;;;;12.40;10.90;;;;;;;10.70;37.97;96758.81;5443788;26;20570;-69
2024/04/24 07:32:38;;;;;;;11.40;9.77;;;;;;;10.80;38.36;96759.47;5443509;26;21316;-69
2024/04/24 07:35:10;;;;;;;12.33;9.80;;;;;;;10.80;39.38;96763.88;5440624;26;20243;-70
2024/04/24 07:37:36;;;;;;;12.50;10.20;;;;;;;10.80;39.78;96764.72;5443420;26;20311;-70
2024/04/24 07:40:01;;;;;;;13.10;9.47;;;;;;;10.85;39.68;96766.84;5442848;26;20870;-70
2024/04/24 07:42:26;;;;;;;13.03;10.10;;;;;;;10.88;39.91;96763.88;5444967;26;20286;-71
2024/04/24 07:44:53;;;;;;;11.90;9.80;;;;;;;10.90;39.94;96757.50;5432291;26;20275;-70
2024/04/24 07:47:18;;;;;;;11.50;9.37;;;;;;;10.97;39.38;96764.69;5442636;26;20239;-70
2024/04/24 07:49:43;;;;;;;10.13;9.03;;;;;;;10.96;39.18;96758.63;5438156;26;20564;-70
2024/04/24 07:52:09;;;;;;;9.87;8.83;;;;;;;10.99;39.35;96765.34;5431222;26;20235;-70
2024/04/24 07:54:35;;;;;;;12.63;9.73;;;;;;;10.75;39.42;96767.00;5441862;26;20273;-69
2024/04/24 07:57:00;;;;;;;11.00;9.83;;;;;;;10.71;39.61;96758.63;5436105;26;20827;-69
2024/04/24 07:59:26;;;;;;;15.80;10.00;;;;;;;10.75;39.69;96756.50;5422564;26;20247;-70
2024/04/24 08:01:51;;;;;;;15.83;9.70;;;;;;;10.82;40.25;96760.13;5437719;26;20282;-68
2024/04/24 08:04:17;;;;;;;12.90;9.20;;;;;;;10.77;40.49;96758.97;5441444;26;20290;-69
2024/04/24 08:06:42;;;;;;;10.33;8.97;;;;;;;10.86;40.84;96756.16;5443906;26;20295;-70
2024/04/24 08:09:09;;;;;;;11.70;8.93;;;;;;;10.69;41.41;96752.75;5431100;26;20247;-69
2024/04/24 08:11:35;;;;;;;11.23;9.13;;;;;;;10.68;41.11;96755.53;5438868;26;20231;-71
2024/04/24 08:14:02;;;;;;;12.73;9.73;;;;;;;10.58;41.55;96750.44;5452110;26;20456;-69
2024/04/24 08:16:29;;;;;;;13.30;9.70;;;;;;;10.54;41.35;96738.66;5439813;26;20328;-70
2024/04/24 08:18:54;;;;;;;10.17;9.07;;;;;;;10.58;41.78;96756.53;5435923;26;21478;-69
2024/04/24 08:21:20;;;;;;;13.97;9.80;;;;;;;10.55;41.83;96756.84;5427901;26;20577;-70
2024/04/24 08:23:45;;;;;;;12.37;9.53;;;;;;;10.65;42.28;96745.38;5438729;26;20239;-70
2024/04/24 08:26:11;;;;;;;15.37;9.13;;;;;;;10.78;42.21;96747.47;5433143;26;20415;-70
2024/04/24 08:28:36;;;;;;;12.03;10.00;;;;;;;10.85;41.34;96743.25;5441493;26;20286;-69
2024/04/24 08:31:04;;;;;;;10.67;9.10;;;;;;;10.89;40.74;96742.75;5444833;26;20231;-69
2024/04/24 08:33:33;;;;;;;12.20;9.73;;;;;;;11.06;41.05;96740.91;5436186;26;20240;-70
2024/04/24 08:36:11;;;;;;;11.30;9.77;;;;;;;11.18;40.45;96736.16;5443996;26;20449;-69
2024/04/24 08:38:37;;;;;;;10.40;9.30;;;;;;;11.25;39.51;96728.44;5431734;26;20567;-69
2024/04/24 08:41:05;;;;;;;11.73;10.50;;;;;;;11.28;38.73;96729.88;5437551;26;21031;-69
2024/04/24 08:43:30;;;;;;;15.97;9.87;;;;;;;11.29;38.67;96731.53;5433397;26;20456;-69
2024/04/24 08:46:00;;;;;;;11.03;9.57;;;;;;;11.34;38.10;96734.47;5441328;26;20521;-70
2024/04/24 08:48:26;;;;;;;11.47;9.70;;;;;;;11.26;37.52;96729.22;5433628;26;20228;-68
2024/04/24 08:50:51;;;;;;;11.20;9.73;;;;;;;11.35;37.92;96725.59;5446340;26;20546;-69
2024/04/24 08:53:20;;;;;;;15.80;10.13;;;;;;;11.41;37.93;96734.59;5414723;26;20473;-69
2024/04/24 08:55:46;;;;;;;15.70;10.13;;;;;;;11.50;37.56;96730.97;5448804;26;20244;-70
2024/04/24 08:58:16;;;;;;;10.27;9.03;;;;;;;11.56;37.67;96725.03;5443693;26;20509;-69
2024/04/24 09:00:42;;;;;;;12.67;10.03;;;;;;;11.56;37.45;96729.47;5448004;26;20448;-69
2024/04/24 09:03:15;;;;;;;12.93;9.43;;;;;;;11.47;36.96;96739.97;5417991;26;20840;-70
2024/04/24 09:05:41;;;;;;;12.73;9.60;;;;;;;11.37;37.04;96729.69;5450637;26;20581;-70
2024/04/24 09:08:08;;;;;;;12.30;9.40;;;;;;;11.47;37.21;96733.94;5448270;26;20469;-70
2024/04/24 09:10:34;;;;;;;9.53;8.30;;;;;;;11.51;37.20;96719.50;5448842;26;20568;-70
2024/04/24 09:13:00;;;;;;;17.23;9.03;;;;;;;11.49;37.65;96722.25;5448719;26;20507;-69
2024/04/24 09:15:27;;;;;;;10.13;8.97;;;;;;;11.45;37.47;96721.00;5463757;26;20554;-68
2024/04/24 09:17:52;;;;;;;10.23;8.83;;;;;;;11.45;37.46;96720.16;5449888;26;21024;-69
2024/04/24 09:20:18;;;;;;;18.97;9.93;;;;;;;11.45;37.89;96731.47;5418244;26;20457;-69
2024/04/24 09:22:45;;;;;;;12.43;9.47;;;;;;;11.14;38.89;96719.09;5450166;26;20908;-71
2024/04/24 09:25:11;;;;;;;14.03;9.40;;;;;;;11.01;40.16;96729.28;5448835;26;20310;-70
2024/04/24 09:27:36;;;;;;;10.57;9.10;;;;;;;10.94;41.23;96729.13;5462519;26;20824;-71
2024/04/24 09:30:02;;;;;;;13.00;10.37;;;;;;;10.98;42.04;96729.59;5447133;26;20362;-69
2024/04/24 09:32:27;;;;;;;16.87;10.07;;;;;;;10.95;42.52;96729.97;5436608;26;20275;-70
2024/04/24 09:34:53;;;;;;;11.40;9.33;;;;;;;10.97;42.93;96726.19;5450562;26;20235;-68
2024/04/24 09:37:18;;;;;;;10.30;9.20;;;;;;;10.93;42.33;96721.44;5417891;26;20629;-69
2024/04/24 09:39:44;;;;;;;10.80;9.63;;;;;;;10.94;42.67;96726.50;5433186;26;20235;-69
2024/04/24 09:42:10;;;;;;;15.13;10.60;;;;;;;10.98;42.82;96727.00;5448001;26;20278;-69
2024/04/24 09:44:45;;;;;;;11.83;10.57;;;;;;;10.86;43.09;96716.84;5388186;26;20251;-69
2024/04/24 09:47:11;;;;;;;11.33;9.50;;;;;;;10.91;43.67;96714.56;5448371;26;20251;-70
2024/04/24 09:49:37;;;;;;;11.00;9.87;;;;;;;10.98;44.37;96716.50;5452640;26;20520;-70
2024/04/24 09:52:02;;;;;;;15.50;10.87;;;;;;;10.99;46.28;96710.28;5451788;26;20231;-69
2024/04/24 09:54:28;;;;;;;11.80;10.20;;;;;;;11.05;46.48;96707.81;5423070;26;20243;-70
2024/04/24 09:56:56;;;;;;;14.73;10.70;;;;;;;11.15;45.13;96712.06;5452884;26;20243;-69
2024/04/24 09:59:26;;;;;;;16.43;13.70;;;;;;;11.19;44.34;96706.31;5439219;26;20701;-72
2024/04/24 10:01:53;;;;;;;13.60;10.87;;;;;;;11.22;44.87;96702.53;5453829;26;20525;-70
2024/04/24 10:04:19;;;;;;;12.43;10.57;;;;;;;11.31;44.45;96709.38;5450829;26;20456;-69
2024/04/24 10:06:46;;;;;;;11.40;10.20;;;;;;;11.36;44.17;96711.47;5453780;26;20457;-70
2024/04/24 10:09:12;;;;;;;11.07;9.63;;;;;;;11.37;43.38;96698.22;5449294;26;20464;-69
2024/04/24 10:11:43;;;;;;;12.30;10.30;;;;;;;11.42;43.82;96699.50;5450348;26;20544;-70
2024/04/24 10:14:09;;;;;;;13.33;10.17;;;;;;;11.45;44.01;96701.78;5431521;26;20466;-70
2024/04/24 10:16:35;;;;;;;12.00;10.70;;;;;;;11.48;42.55;96699.63;5476296;26;20480;-69
2024/04/24 10:19:02;;;;;;;15.90;10.27;;;;;;;11.38;41.96;96693.78;5445038;26;20501;-69
2024/04/24 10:21:28;;;;;;;10.80;9.70;;;;;;;11.44;41.74;96694.91;5408957;26;21296;-69
2024/04/24 10:23:54;;;;;;;10.33;9.33;;;;;;;11.45;42.06;96700.00;5443150;26;20524;-70
2024/04/24 10:26:20;;;;;;;12.10;7.80;;;;;;;11.50;41.01;96697.66;5446974;26;20352;-69
2024/04/24 10:28:47;;;;;;;8.33;7.50;;;;;;;11.31;40.80;96698.06;5447881;26;20457;-70
2024/04/24 10:31:14;;;;;;;7.90;7.10;;;;;;;11.27;41.06;96699.38;5447186;26;21044;-72
2024/04/24 10:33:40;;;;;;;7.40;6.70;;;;;;;11.15;40.83;96691.09;5409762;26;20462;-70
2024/04/24 10:36:06;;;;;;;7.30;6.40;;;;;;;11.28;41.26;96691.34;5409302;26;20515;-70
2024/04/24 10:38:32;;;;;;;7.33;6.63;;;;;;;11.34;41.24;96692.50;5444922;26;20452;-70
2024/04/24 10:40:58;;;;;;;6.10;5.60;;;;;;;11.10;41.02;96688.13;5445169;26;20278;-69
2024/04/24 10:43:23;;;;;;;6.63;5.97;;;;;;;11.24;41.08;96683.97;5415060;26;20464;-70
2024/04/24 10:45:53;;;;;;;6.03;5.40;;;;;;;11.37;41.63;96684.25;5445620;26;20243;-70
2024/04/24 10:48:18;;;;;;;6.03;5.47;;;;;;;11.35;41.11;96689.69;5446237;26;20235;-69
2024/04/24 10:50:46;;;;;;;5.77;5.20;;;;;;;11.41;41.77;96687.34;5446103;26;20576;-69
2024/04/24 10:53:13;;;;;;;6.20;5.60;;;;;;;11.34;41.95;96687.25;5447058;26;20348;-69
2024/04/24 10:55:50;;;;;;;6.50;5.20;;;;;;;11.51;42.31;96691.44;5446987;26;20590;-69
2024/04/24 10:58:19;;;;;;;5.97;5.37;;;;;;;11.50;42.00;96692.41;5444420;26;20512;-70
2024/04/24 11:00:45;;;;;;;7.00;5.70;;;;;;;11.34;41.60;96684.63;5444931;26;21014;-70
2024/04/24 11:03:11;;;;;;;5.50;5.10;;;;;;;11.36;42.10;96685.25;5415532;26;20457;-69
2024/04/24 11:05:37;;;;;;;6.00;5.40;;;;;;;11.14;42.38;96682.38;5415141;26;20235;-70
2024/04/24 11:08:04;;;;;;;6.60;6.00;;;;;;;11.17;42.27;96682.06;5444747;26;20577;-69
2024/04/24 11:10:32;;;;;;;6.57;5.97;;;;;;;11.12;42.61;96678.31;5414636;26;20560;-69
2024/04/24 11:12:57;;;;;;;7.20;5.90;;;;;;;11.12;42.50;96683.53;5445443;26;20550;-70
2024/04/24 11:15:25;;;;;;;6.63;5.93;;;;;;;11.10;42.50;96675.81;5446104;26;20461;-71
2024/04/24 11:17:51;;;;;;;6.53;5.93;;;;;;;11.10;42.76;96675.81;5414590;26;20236;-71
2024/04/24 11:20:21;;;;;;;6.67;6.07;;;;;;;11.08;42.52;96675.19;5445734;26;20997;-70
2024/04/24 11:22:47;;;;;;;7.07;6.37;;;;;;;11.11;42.76;96671.41;5446752;26;20231;-70
2024/04/24 11:25:14;;;;;;;6.10;5.50;;;;;;;11.14;42.71;96673.72;5441668;26;20541;-69
2024/04/24 11:27:40;;;;;;;6.27;5.77;;;;;;;11.22;42.67;96671.84;5434125;26;20239;-69
2024/04/24 11:30:13;;;;;;;7.17;5.77;;;;;;;11.29;42.19;96661.50;5446149;26;20516;-70
2024/04/24 11:32:40;;;;;;;5.53;4.80;;;;;;;11.42;42.15;96660.97;5443907;26;20231;-69
2024/04/24 11:35:07;;;;;;;5.57;5.00;;;;;;;11.51;42.15;96652.06;5385115;26;20532;-69